Time;durP1;ratioP1;P1;durP2;ratioP2;P2;SDS_P1;SDS_P2;PMS_P1;PMS_P2;Temp;Humidity;BMP_temperature;BMP_pressure;BME280_temperature;BME280_humidity;BME280_pressure;Samples;Min_cycle;Max_cycle;Signal;HPM_P1;HPM_P2
2022/10/23 00:00:26;;;;;;;6.18;5.13;;;;;;;29.44;56.82;101081.78;5101596;27;66814;-33
2022/10/23 00:02:58;;;;;;;8.27;5.47;;;;;;;29.48;56.54;101095.72;5103441;27;69981;-33
2022/10/23 00:05:29;;;;;;;24.13;5.60;;;;;;;29.49;56.90;101092.81;5088767;27;66951;-33
2022/10/23 00:07:59;;;;;;;9.07;5.90;;;;;;;29.49;56.98;101089.28;5099903;27;70560;-32
2022/10/23 00:10:30;;;;;;;6.55;5.63;;;;;;;29.55;57.00;101104.66;5098254;27;66587;-33
2022/10/23 00:13:01;;;;;;;5.45;5.05;;;;;;;29.49;57.33;101091.97;5091099;27;70340;-33
2022/10/23 00:15:35;;;;;;;6.00;5.60;;;;;;;29.12;57.59;101032.06;5090159;27;66714;-34
2022/10/23 00:18:05;;;;;;;6.18;5.78;;;;;;;29.67;56.91;101116.59;5096135;27;70419;-33
2022/10/23 00:20:36;;;;;;;8.70;5.18;;;;;;;29.69;57.88;101121.75;5084561;27;65894;-33
2022/10/23 00:23:06;;;;;;;8.27;4.90;;;;;;;29.73;56.72;101123.88;5087139;27;69496;-33
2022/10/23 00:25:37;;;;;;;5.05;4.78;;;;;;;29.72;58.35;101122.19;5086655;27;66840;-33
2022/10/23 00:28:08;;;;;;;6.70;5.40;;;;;;;29.47;58.34;101080.53;5083118;27;69413;-33
2022/10/23 00:30:39;;;;;;;14.05;6.28;;;;;;;29.81;59.41;101126.38;5085795;27;66588;-33
2022/10/23 00:33:09;;;;;;;12.80;8.63;;;;;;;29.84;62.78;101142.16;5079999;27;69642;-33
2022/10/23 00:35:41;;;;;;;12.98;8.95;;;;;;;29.93;61.93;101140.09;5086554;27;66955;-32
2022/10/23 00:38:12;;;;;;;9.43;8.85;;;;;;;29.91;65.23;101141.34;5092157;27;69039;-32
2022/10/23 00:40:44;;;;;;;11.57;10.38;;;;;;;29.98;65.14;101142.19;5086583;27;67112;-32
2022/10/23 00:43:24;;;;;;;12.75;9.50;;;;;;;29.04;66.49;100986.34;5077519;27;69764;-32
2022/10/23 00:45:55;;;;;;;9.52;8.70;;;;;;;29.99;66.62;101144.66;5091774;27;66381;-32
2022/10/23 00:48:28;;;;;;;10.97;9.87;;;;;;;29.89;67.15;101124.47;5091347;27;69781;-32
2022/10/23 00:50:58;;;;;;;14.82;10.25;;;;;;;29.92;67.45;101126.75;5083713;27;65639;-33
2022/10/23 00:53:29;;;;;;;13.88;12.63;;;;;;;30.09;67.07;101144.25;5075605;27;70018;-31
2022/10/23 00:56:02;;;;;;;22.75;13.27;;;;;;;30.00;68.37;101134.66;5100968;27;66569;-32
2022/10/23 00:58:32;;;;;;;15.52;12.68;;;;;;;29.98;67.78;101125.94;5095508;27;69936;-32
2022/10/23 01:01:14;;;;;;;15.43;13.85;;;;;;;30.03;67.96;101118.03;5087583;27;65219;-33
2022/10/23 01:03:45;;;;;;;15.05;13.57;;;;;;;30.20;66.59;101142.78;5090542;27;69642;-31
2022/10/23 01:06:41;;;;;;;14.73;13.23;;;;;;;29.93;68.68;101106.81;5089889;27;66260;-32
2022/10/23 01:09:15;;;;;;;15.50;13.15;;;;;;;30.23;69.31;101155.94;5083568;27;69698;-31
2022/10/23 01:12:21;;;;;;;14.18;12.57;;;;;;;30.08;69.11;101134.47;5097341;27;66713;-32
2022/10/23 01:15:08;;;;;;;13.07;11.55;;;;;;;29.65;69.99;101088.09;5062174;27;69905;-32
2022/10/23 01:18:01;;;;;;;13.75;12.40;;;;;;;30.13;70.26;101174.44;5091458;27;66247;-32
2022/10/23 01:21:04;;;;;;;12.75;11.52;;;;;;;29.93;69.38;101128.44;5080862;27;70062;-31
2022/10/23 01:23:49;;;;;;;12.30;10.85;;;;;;;30.26;70.24;101180.69;5092386;27;43828;-32
2022/10/23 01:26:25;;;;;;;12.13;10.95;;;;;;;30.27;70.05;101176.94;5078764;27;70320;-32
2022/10/23 01:29:30;;;;;;;16.13;11.07;;;;;;;30.16;70.74;101174.84;5081820;27;66565;-32
2022/10/23 01:32:21;;;;;;;11.18;10.32;;;;;;;30.32;67.16;101170.09;5077389;27;70487;-32
2022/10/23 01:34:56;;;;;;;10.18;9.48;;;;;;;29.90;66.02;101081.00;5082019;27;66530;-32
2022/10/23 01:37:35;;;;;;;11.10;10.07;;;;;;;30.58;65.67;101186.28;5112515;27;69583;-32
2022/10/23 01:40:17;;;;;;;9.98;9.27;;;;;;;30.62;66.07;101186.66;5097176;27;66145;-32
2022/10/23 01:42:57;;;;;;;9.82;9.13;;;;;;;30.06;66.16;101091.41;5096329;27;69247;-32
2022/10/23 01:45:41;;;;;;;9.85;9.15;;;;;;;30.04;66.37;101088.06;5111485;27;66614;-32
2022/10/23 01:48:20;;;;;;;9.82;9.20;;;;;;;30.28;66.75;101120.94;5101891;27;69721;-32
2022/10/23 01:50:55;;;;;;;9.75;9.05;;;;;;;30.76;66.81;101193.75;5103331;27;65757;-32
2022/10/23 01:53:30;;;;;;;10.57;8.82;;;;;;;30.82;66.57;101190.22;5107920;27;70356;-32
2022/10/23 01:56:05;;;;;;;10.57;9.40;;;;;;;30.44;67.00;101133.19;5097943;27;65685;-32
2022/10/23 01:58:37;;;;;;;9.27;8.65;;;;;;;30.86;66.58;101188.72;5092589;27;69269;-32
2022/10/23 02:01:10;;;;;;;;;;;;;;;30.49;68.10;101192.97;5091340;27;65822;-33
2022/10/23 02:03:50;;;;;;;9.70;8.77;;;;;;;30.37;66.78;101108.00;5095401;27;69399;-32
2022/10/23 02:06:20;;;;;;;8.43;7.78;;;;;;;30.92;66.87;101192.47;5095570;27;65953;-32
2022/10/23 02:08:51;;;;;;;10.65;8.68;;;;;;;30.94;66.74;101201.22;5098325;27;69979;-34
2022/10/23 02:11:22;;;;;;;8.82;8.13;;;;;;;30.97;66.75;101192.66;5086082;27;66153;-32
2022/10/23 02:14:03;;;;;;;9.07;8.30;;;;;;;30.98;66.66;101194.34;5080218;27;70195;-32
2022/10/23 02:16:54;;;;;;;8.57;7.85;;;;;;;30.56;67.27;101128.78;5081554;27;66315;-32
2022/10/23 02:19:48;;;;;;;8.77;7.88;;;;;;;30.98;68.05;101191.63;5086677;27;69719;-32
2022/10/23 02:22:35;;;;;;;9.57;7.53;;;;;;;30.43;65.51;101116.13;5085936;27;65370;-32
2022/10/23 02:25:27;;;;;;;11.98;8.00;;;;;;;30.47;67.62;101119.25;5088833;27;69805;-33
2022/10/23 02:28:01;;;;;;;21.00;8.38;;;;;;;31.00;66.05;101173.28;5099785;27;66131;-34
2022/10/23 02:30:42;;;;;;;11.15;8.20;;;;;;;30.90;68.81;101190.00;5096795;27;69673;-33
2022/10/23 02:33:15;;;;;;;18.35;8.23;;;;;;;30.91;69.70;101197.06;5113947;27;66459;-33
2022/10/23 02:35:47;;;;;;;8.90;8.20;;;;;;;30.80;70.12;101194.19;5100943;27;69849;-34
2022/10/23 02:38:34;;;;;;;8.52;7.55;;;;;;;30.73;70.70;101188.75;5087531;27;66657;-33
2022/10/23 02:41:28;;;;;;;9.75;8.05;;;;;;;30.74;71.76;101206.66;5094650;27;70270;-33
2022/10/23 02:44:42;;;;;;;8.43;7.72;;;;;;;30.71;71.37;101202.50;5050994;27;66126;-33
2022/10/23 02:47:28;;;;;;;9.15;8.05;;;;;;;30.98;69.34;101191.63;5020572;27;69682;-33
2022/10/23 02:50:22;;;;;;;7.78;7.00;;;;;;;31.04;68.64;101198.91;5086315;27;66587;-34
2022/10/23 02:53:04;;;;;;;9.10;6.30;;;;;;;31.03;68.50;101193.69;5092364;27;70129;-32
2022/10/23 02:55:37;;;;;;;7.13;6.28;;;;;;;31.20;67.84;101199.44;5102732;27;65967;-33
2022/10/23 02:58:21;;;;;;;6.90;6.30;;;;;;;31.26;67.92;101195.88;5100585;27;70957;-33
2022/10/23 03:01:08;;;;;;;7.95;5.90;;;;;;;31.21;67.77;101184.88;5098547;27;66717;-33
2022/10/23 03:03:45;;;;;;;6.32;5.82;;;;;;;31.34;67.23;101184.78;5098588;27;70015;-33
2022/10/23 03:06:16;;;;;;;8.07;6.43;;;;;;;31.38;66.73;101169.81;5102849;27;66899;-32
2022/10/23 03:08:58;;;;;;;5.83;5.43;;;;;;;30.94;66.87;101096.41;5087319;27;69974;-32
2022/10/23 03:11:28;;;;;;;5.93;5.53;;;;;;;31.46;66.76;101172.25;5099128;27;66164;-32
2022/10/23 03:13:59;;;;;;;7.00;6.38;;;;;;;31.49;66.54;101171.81;5097959;27;70892;-33
2022/10/23 03:16:30;;;;;;;7.23;6.03;;;;;;;31.52;66.38;101171.38;5089072;27;65605;-32
2022/10/23 03:19:01;;;;;;;7.22;5.72;;;;;;;31.55;66.31;101170.94;5097243;27;69600;-33
2022/10/23 03:21:31;;;;;;;8.25;6.30;;;;;;;31.58;66.25;101170.50;5084705;27;66300;-34
2022/10/23 03:24:04;;;;;;;7.28;6.47;;;;;;;31.50;65.93;101151.78;5093339;27;69100;-33
2022/10/23 03:26:40;;;;;;;6.22;5.82;;;;;;;31.63;66.02;101159.00;5096134;27;67095;-34
2022/10/23 03:29:11;;;;;;;6.50;5.80;;;;;;;31.64;65.78;101151.72;5105417;27;69252;-33
2022/10/23 03:31:46;;;;;;;8.77;5.72;;;;;;;31.66;65.65;101145.00;5102663;27;66082;-32
2022/10/23 03:34:18;;;;;;;6.50;6.10;;;;;;;31.66;65.77;101142.31;5111690;27;70529;-32
2022/10/23 03:36:48;;;;;;;6.55;6.05;;;;;;;31.69;65.80;101130.19;5097283;27;66049;-33
2022/10/23 03:39:21;;;;;;;6.50;6.00;;;;;;;31.72;65.78;101132.47;5083347;27;70266;-35
2022/10/23 03:41:52;;;;;;;6.70;6.22;;;;;;;31.72;65.50;101118.91;5094949;27;65637;-33
2022/10/23 03:44:22;;;;;;;5.93;5.40;;;;;;;31.65;65.67;101099.13;5088956;27;69638;-33
2022/10/23 03:46:53;;;;;;;6.18;5.50;;;;;;;31.76;65.38;101111.97;5082330;27;65880;-32
2022/10/23 03:49:23;;;;;;;8.02;5.50;;;;;;;31.78;65.19;101104.44;5083712;27;69343;-32
2022/10/23 03:51:54;;;;;;;5.95;5.30;;;;;;;31.78;65.24;101097.13;5089944;27;66061;-33
2022/10/23 03:54:28;;;;;;;7.30;5.25;;;;;;;31.27;65.08;101000.53;5084490;27;69524;-33
2022/10/23 03:57:00;;;;;;;6.05;5.55;;;;;;;31.84;65.05;101087.28;5106281;27;66955;-34
2022/10/23 03:59:30;;;;;;;6.87;6.37;;;;;;;31.82;65.28;101073.94;5096674;27;69244;-32
2022/10/23 04:02:01;;;;;;;6.13;5.60;;;;;;;31.84;65.08;101065.56;5090340;27;66508;-34
2022/10/23 04:04:33;;;;;;;5.90;5.47;;;;;;;31.87;64.81;101064.31;5103608;27;70751;-33
2022/10/23 04:07:03;;;;;;;6.20;5.50;;;;;;;31.88;64.63;101050.53;5099227;27;65679;-34
2022/10/23 04:09:34;;;;;;;6.22;5.82;;;;;;;31.65;65.64;101051.16;5090267;27;70274;-34
2022/10/23 04:12:05;;;;;;;6.30;5.70;;;;;;;31.45;66.12;101032.31;5088175;27;66055;-33
2022/10/23 04:14:36;;;;;;;5.60;5.20;;;;;;;31.48;66.96;101041.91;5083649;27;70027;-33
2022/10/23 04:17:07;;;;;;;5.95;5.50;;;;;;;31.41;66.69;101031.13;5083942;27;66169;-34
2022/10/23 04:19:38;;;;;;;5.97;5.45;;;;;;;31.39;66.83;101025.06;5088985;27;70367;-34
2022/10/23 04:22:08;;;;;;;5.85;5.22;;;;;;;31.34;67.42;101017.59;5089344;27;65096;-37
2022/10/23 04:24:45;;;;;;;7.88;4.90;;;;;;;31.33;67.07;101009.66;5092583;27;68982;-34
2022/10/23 04:27:19;;;;;;;14.68;5.53;;;;;;;31.24;67.77;101008.28;5093439;27;65876;-33
2022/10/23 04:29:49;;;;;;;16.02;6.10;;;;;;;31.49;66.55;101002.91;5094244;27;70099;-33
2022/10/23 04:32:25;;;;;;;14.82;5.07;;;;;;;31.60;66.59;101005.72;5090229;27;66011;-33
2022/10/23 04:34:55;;;;;;;8.68;5.68;;;;;;;31.70;65.90;100994.34;5099754;27;70280;-33
2022/10/23 04:37:27;;;;;;;6.88;5.38;;;;;;;31.78;65.63;100995.94;5099182;27;65319;-32
2022/10/23 04:39:57;;;;;;;6.82;5.75;;;;;;;31.78;65.82;100975.06;5093741;27;70718;-36
2022/10/23 04:42:27;;;;;;;6.25;5.65;;;;;;;31.53;65.33;100926.31;5087231;27;65623;-33
2022/10/23 04:45:00;;;;;;;7.30;5.47;;;;;;;31.96;65.41;100976.19;5086705;27;70017;-34
2022/10/23 04:47:31;;;;;;;10.50;6.15;;;;;;;32.01;65.22;100969.03;5096737;27;65925;-33
2022/10/23 04:50:03;;;;;;;6.75;6.15;;;;;;;32.02;64.92;100959.84;5096632;27;70560;-34
2022/10/23 04:52:57;;;;;;;7.20;5.53;;;;;;;31.65;65.04;100893.88;5099329;27;66332;-33
2022/10/23 04:55:27;;;;;;;6.05;5.47;;;;;;;32.12;64.66;100953.03;5104932;27;70034;-32
2022/10/23 04:58:17;;;;;;;6.57;6.07;;;;;;;32.12;64.97;100942.19;5103138;27;65281;-33
2022/10/23 05:00:49;;;;;;;7.60;5.83;;;;;;;32.18;64.94;100947.53;5106267;27;70581;-33
2022/10/23 05:03:26;;;;;;;6.30;5.80;;;;;;;32.12;64.64;100925.91;5100263;27;65310;-33
2022/10/23 05:05:56;;;;;;;9.07;5.40;;;;;;;32.25;64.43;100936.59;5079411;27;69484;-33
2022/10/23 05:08:45;;;;;;;6.53;5.60;;;;;;;32.26;64.62;100930.09;5096291;27;66537;-33
2022/10/23 05:11:40;;;;;;;6.43;5.68;;;;;;;32.28;64.72;100926.09;5084374;27;70363;-33
2022/10/23 05:14:11;;;;;;;10.00;6.82;;;;;;;32.31;64.91;100911.25;5099912;27;64279;-33
2022/10/23 05:16:57;;;;;;;8.67;6.53;;;;;;;31.61;65.27;100839.25;5073102;27;71003;-31
2022/10/23 05:19:43;;;;;;;9.27;6.10;;;;;;;31.87;65.73;100896.94;5099418;27;66333;-33
2022/10/23 05:22:14;;;;;;;7.15;5.45;;;;;;;31.84;65.94;100902.81;5090989;27;69608;-31
2022/10/23 05:24:52;;;;;;;6.28;5.80;;;;;;;31.79;66.65;100897.28;5089788;27;65683;-34
2022/10/23 05:27:25;;;;;;;5.63;5.20;;;;;;;31.75;66.36;100882.50;5083873;27;69739;-31
2022/10/23 05:29:57;;;;;;;6.67;6.07;;;;;;;31.71;66.67;100884.00;5118768;27;66100;-34
2022/10/23 05:32:33;;;;;;;5.75;5.35;;;;;;;31.22;66.58;100796.28;5087168;27;70083;-34
2022/10/23 05:35:18;;;;;;;6.35;5.70;;;;;;;31.67;66.67;100871.94;5095009;27;66429;-32
2022/10/23 05:37:52;;;;;;;5.65;5.13;;;;;;;31.72;66.82;100861.25;5081559;27;70148;-32
2022/10/23 05:40:25;;;;;;;6.07;5.47;;;;;;;31.72;66.92;100858.53;5097335;27;66144;-35
2022/10/23 05:43:04;;;;;;;5.05;4.75;;;;;;;31.70;67.12;100852.50;5092878;27;69244;-32
2022/10/23 05:45:48;;;;;;;4.97;4.68;;;;;;;31.72;66.88;100850.41;5081550;27;66381;-35
2022/10/23 05:48:28;;;;;;;4.57;4.28;;;;;;;31.73;66.86;100846.63;5098080;27;70692;-32
2022/10/23 05:51:22;;;;;;;4.80;4.40;;;;;;;31.65;67.00;100826.09;5100744;27;65570;-32
2022/10/23 05:54:13;;;;;;;3.93;3.73;;;;;;;31.74;66.78;100822.00;5076172;27;70556;-32
2022/10/23 05:56:59;;;;;;;4.57;4.28;;;;;;;31.75;67.00;100822.81;5095455;27;64805;-33
2022/10/23 05:59:36;;;;;;;4.30;4.10;;;;;;;31.76;66.74;100814.47;5089543;27;70108;-32
2022/10/23 06:02:22;;;;;;;4.72;4.32;;;;;;;31.74;66.83;100799.47;5094283;27;65344;-32
2022/10/23 06:04:58;;;;;;;4.25;3.85;;;;;;;31.71;66.59;100783.66;5102214;27;69359;-33
2022/10/23 06:07:44;;;;;;;4.03;3.72;;;;;;;31.81;66.75;100792.06;5103562;27;65692;-32
2022/10/23 06:10:16;;;;;;;4.65;4.25;;;;;;;31.84;66.86;100788.91;5102064;27;69584;-32
2022/10/23 06:12:50;;;;;;;4.65;4.25;;;;;;;31.84;66.86;100778.03;5100866;27;66405;-32
2022/10/23 06:15:20;;;;;;;;;;;;;;;31.69;67.29;100772.22;5100141;27;69587;-32
2022/10/23 06:18:05;;;;;;;4.15;3.92;;;;;;;31.79;66.88;100769.78;5102075;27;66401;-33
2022/10/23 06:20:39;;;;;;;4.47;4.18;;;;;;;31.81;66.88;100756.81;5098454;27;69851;-34
2022/10/23 06:23:15;;;;;;;4.90;4.03;;;;;;;31.86;66.76;100759.66;5100358;27;65873;-33
2022/10/23 06:26:14;;;;;;;4.05;3.85;;;;;;;31.41;66.54;100675.19;5089077;27;69435;-32
2022/10/23 06:29:10;;;;;;;3.63;3.40;;;;;;;31.89;66.38;100745.63;5106884;27;64855;-33
2022/10/23 06:31:43;;;;;;;5.75;4.00;;;;;;;31.87;66.92;100736.91;5118076;27;70187;-33
2022/10/23 06:34:14;;;;;;;3.47;3.23;;;;;;;31.91;66.55;100735.44;5091940;27;65452;-33
2022/10/23 06:36:46;;;;;;;;;;;;;;;31.73;67.07;100735.44;5103028;27;70124;-32
2022/10/23 06:39:45;;;;;;;3.85;3.65;;;;;;;31.91;66.54;100719.16;5105940;27;66759;-33
2022/10/23 06:42:47;;;;;;;8.73;3.58;;;;;;;31.91;66.61;100724.56;5084903;27;70144;-32
2022/10/23 06:45:34;;;;;;;3.33;3.13;;;;;;;31.94;66.60;100720.56;5097122;27;66335;-33
2022/10/23 06:48:14;;;;;;;3.53;3.33;;;;;;;31.94;66.69;100702.41;5107246;27;70229;-33
2022/10/23 06:51:05;;;;;;;3.63;3.33;;;;;;;31.54;66.75;100621.63;5084263;27;65827;-34
2022/10/23 06:53:42;;;;;;;3.15;2.95;;;;;;;31.96;66.86;100684.03;5064951;27;69640;-34
2022/10/23 06:56:34;;;;;;;4.33;4.03;;;;;;;31.90;68.14;100684.91;5084445;27;65739;-32
2022/10/23 06:59:07;;;;;;;4.80;4.40;;;;;;;31.90;68.08;100673.22;5085915;27;70122;-32
2022/10/23 07:01:39;;;;;;;5.88;5.47;;;;;;;31.95;67.97;100676.91;5091442;27;67347;-32
2022/10/23 07:04:14;;;;;;;5.93;5.43;;;;;;;32.12;67.20;100671.63;5088152;27;70424;-32
2022/10/23 07:06:45;;;;;;;5.68;5.18;;;;;;;32.27;66.59;100674.75;5095389;27;66436;-32
2022/10/23 07:09:26;;;;;;;7.28;5.63;;;;;;;32.35;66.61;100670.84;5102820;27;69554;-33
2022/10/23 07:11:57;;;;;;;11.57;6.47;;;;;;;32.44;66.23;100674.88;5102602;27;66956;-32
2022/10/23 07:14:36;;;;;;;6.82;5.90;;;;;;;32.11;66.24;100620.34;5100505;27;70493;-33
2022/10/23 07:17:07;;;;;;;6.82;6.32;;;;;;;32.55;66.14;100680.56;5100927;27;66296;-34
2022/10/23 07:19:39;;;;;;;6.05;5.53;;;;;;;32.55;66.29;100665.09;5100178;27;70040;-33
2022/10/23 07:22:13;;;;;;;6.50;6.00;;;;;;;32.62;66.40;100679.38;5083614;27;66817;-33
2022/10/23 07:25:10;;;;;;;6.97;5.63;;;;;;;32.64;66.08;100679.97;5111423;27;69817;-32
2022/10/23 07:27:41;;;;;;;8.60;6.10;;;;;;;32.66;66.56;100677.84;5117206;27;66004;-33
2022/10/23 07:30:14;;;;;;;6.47;6.07;;;;;;;32.69;66.21;100681.97;5116564;27;69981;-33
2022/10/23 07:32:50;;;;;;;7.13;6.15;;;;;;;32.71;66.38;100679.84;5097614;27;65604;-34
2022/10/23 07:35:40;;;;;;;6.72;6.22;;;;;;;32.71;66.56;100674.44;5092984;27;68930;-32
2022/10/23 07:38:19;;;;;;;6.75;6.35;;;;;;;32.73;66.50;100685.84;5092669;27;66832;-32
2022/10/23 07:40:58;;;;;;;7.13;6.35;;;;;;;32.76;66.59;100704.38;5094223;27;69929;-32
2022/10/23 07:43:28;;;;;;;6.13;5.63;;;;;;;32.74;66.72;100706.53;5085453;27;65363;-32
2022/10/23 07:46:04;;;;;;;9.93;6.72;;;;;;;32.75;66.92;100708.19;5091474;27;70340;-33
2022/10/23 07:48:39;;;;;;;7.53;6.88;;;;;;;32.75;66.87;100696.50;5108635;27;65996;-33
2022/10/23 07:51:15;;;;;;;8.17;6.47;;;;;;;32.67;67.73;100700.38;5107896;27;71513;-31
2022/10/23 07:53:48;;;;;;;7.10;6.40;;;;;;;32.74;67.35;100706.53;5094060;27;65737;-32
2022/10/23 07:56:41;;;;;;;7.07;6.50;;;;;;;32.71;67.43;100713.28;5094984;27;69586;-33
2022/10/23 07:59:21;;;;;;;8.02;7.43;;;;;;;32.71;67.54;100715.16;5099021;27;65710;-32
2022/10/23 08:01:55;;;;;;;8.13;6.65;;;;;;;32.68;67.33;100702.88;5106085;27;70116;-33
2022/10/23 08:04:32;;;;;;;7.10;6.40;;;;;;;32.68;67.56;100707.47;5096133;27;66783;-32
2022/10/23 08:07:11;;;;;;;7.57;6.97;;;;;;;32.67;67.55;100697.69;5098364;27;70501;-34
2022/10/23 08:09:44;;;;;;;7.03;6.55;;;;;;;32.66;67.70;100679.75;5088953;27;66298;-33
2022/10/23 08:12:14;;;;;;;7.30;6.70;;;;;;;32.62;67.63;100664.97;5102236;27;69346;-33
2022/10/23 08:14:45;;;;;;;6.78;6.03;;;;;;;32.64;67.59;100668.28;5098143;27;65533;-34
2022/10/23 08:17:16;;;;;;;6.50;5.95;;;;;;;32.59;67.63;100654.59;5089831;27;69539;-34
2022/10/23 08:20:07;;;;;;;7.18;6.55;;;;;;;32.59;67.59;100658.13;5083186;27;65106;-35
2022/10/23 08:22:43;;;;;;;6.15;5.75;;;;;;;32.59;67.52;100654.59;5089976;27;69958;-34
2022/10/23 08:25:19;;;;;;;6.60;6.10;;;;;;;32.50;67.68;100651.41;5085122;27;66094;-34
2022/10/23 08:27:55;;;;;;;5.90;5.50;;;;;;;32.46;67.80;100652.97;5098525;27;69604;-35
2022/10/23 08:30:27;;;;;;;6.20;5.78;;;;;;;32.43;67.95;100656.94;5114058;27;66004;-35
2022/10/23 08:32:59;;;;;;;6.40;6.00;;;;;;;32.54;67.83;100668.03;5120417;27;69242;-34
2022/10/23 08:35:29;;;;;;;5.72;5.32;;;;;;;32.51;68.08;100673.94;5099368;27;66059;-34
2022/10/23 08:38:00;;;;;;;6.82;5.93;;;;;;;32.49;67.72;100677.72;5109170;27;70318;-34
2022/10/23 08:40:35;;;;;;;5.97;5.65;;;;;;;32.51;67.77;100680.19;5111481;27;65682;-36
2022/10/23 08:43:49;;;;;;;7.63;5.75;;;;;;;32.31;68.13;100658.81;5100953;27;70093;-33
2022/10/23 08:46:38;;;;;;;6.70;6.20;;;;;;;31.90;68.01;100581.00;5093726;27;66263;-32
2022/10/23 08:49:59;;;;;;;6.55;6.05;;;;;;;32.39;68.51;100666.59;5089897;27;70094;-32
2022/10/23 08:53:01;;;;;;;7.35;6.38;;;;;;;32.27;69.36;100657.63;5083354;27;66130;-32
2022/10/23 08:55:45;;;;;;;8.50;7.70;;;;;;;32.35;69.24;100665.44;5105795;27;69732;-33
2022/10/23 08:58:23;;;;;;;13.27;9.18;;;;;;;32.25;68.73;100624.47;5100678;27;66356;-32
2022/10/23 09:00:54;;;;;;;9.40;8.45;;;;;;;32.39;68.79;100654.91;5093778;27;69898;-35
2022/10/23 09:03:26;;;;;;;12.02;8.80;;;;;;;32.33;68.87;100651.25;5090174;27;66738;-32
2022/10/23 09:06:07;;;;;;;11.82;8.23;;;;;;;32.23;69.24;100651.00;5092898;27;69850;-32
2022/10/23 09:08:50;;;;;;;10.18;8.88;;;;;;;32.33;69.20;100683.00;5095469;27;66232;-34
2022/10/23 09:11:45;;;;;;;9.98;9.05;;;;;;;32.24;69.23;100682.53;5101279;27;69180;-33
2022/10/23 09:14:48;;;;;;;10.85;8.60;;;;;;;32.27;69.45;100701.06;5093270;27;66661;-33
2022/10/23 09:17:24;;;;;;;;;;;;;;;31.97;70.83;100711.97;5094388;27;69517;-32
2022/10/23 09:20:23;;;;;;;12.55;8.70;;;;;;;32.16;69.76;100704.59;5101729;27;66113;-32
2022/10/23 09:23:04;;;;;;;9.75;8.88;;;;;;;31.70;69.68;100611.97;5093329;27;69211;-32
2022/10/23 09:25:38;;;;;;;10.13;8.75;;;;;;;32.24;69.40;100686.06;5097300;27;65973;-32
2022/10/23 09:28:24;;;;;;;15.15;10.15;;;;;;;31.79;69.92;100628.75;5099994;27;70342;-33
2022/10/23 09:31:09;;;;;;;10.20;9.20;;;;;;;32.15;70.07;100675.78;5103587;27;65948;-32
2022/10/23 09:33:40;;;;;;;9.98;9.02;;;;;;;32.26;69.56;100688.53;5112775;27;69207;-33
2022/10/23 09:36:13;;;;;;;11.97;9.10;;;;;;;32.23;69.55;100697.16;5118203;27;66377;-33
2022/10/23 09:38:46;;;;;;;11.82;10.13;;;;;;;32.24;69.39;100702.34;5112535;27;69921;-33
2022/10/23 09:41:30;;;;;;;10.90;9.90;;;;;;;32.15;70.11;100719.19;5115576;27;66506;-33
2022/10/23 09:44:07;;;;;;;11.65;10.30;;;;;;;32.21;70.38;100742.72;5113339;27;69375;-32
2022/10/23 09:46:38;;;;;;;16.35;10.93;;;;;;;32.22;69.68;100755.22;5108543;27;66445;-33
2022/10/23 09:49:45;;;;;;;11.15;10.15;;;;;;;32.03;71.07;100782.41;5109106;27;69913;-31
2022/10/23 09:52:16;;;;;;;14.07;10.73;;;;;;;32.19;70.19;100793.69;5091165;27;65951;-33
2022/10/23 09:55:02;;;;;;;11.37;10.27;;;;;;;32.19;69.82;100810.78;5107523;27;71108;-35
2022/10/23 09:57:43;;;;;;;11.77;10.88;;;;;;;32.03;70.75;100763.41;5102912;27;66440;-36
2022/10/23 10:00:26;;;;;;;13.30;11.70;;;;;;;32.16;70.02;100764.28;5093570;27;70035;-32
2022/10/23 10:02:59;;;;;;;12.45;11.35;;;;;;;32.15;70.15;100755.31;5091903;27;66564;-33
2022/10/23 10:05:43;;;;;;;13.18;11.70;;;;;;;32.14;69.86;100745.50;5084793;27;69782;-32
2022/10/23 10:08:39;;;;;;;13.60;12.43;;;;;;;32.09;70.27;100736.41;5102305;27;66345;-32
2022/10/23 10:11:12;;;;;;;12.25;11.25;;;;;;;32.11;69.83;100728.88;5104544;27;70296;-33
2022/10/23 10:14:06;;;;;;;12.98;11.88;;;;;;;32.10;70.15;100732.66;5110190;27;65286;-35
2022/10/23 10:16:50;;;;;;;13.35;12.02;;;;;;;32.08;70.33;100729.34;5086550;27;70000;-34
2022/10/23 10:19:32;;;;;;;12.65;11.68;;;;;;;32.10;70.09;100754.38;5101670;27;66283;-33
2022/10/23 10:22:19;;;;;;;13.30;11.98;;;;;;;32.05;70.25;100780.28;5087740;27;70027;-35
2022/10/23 10:25:00;;;;;;;12.35;10.90;;;;;;;32.08;69.90;100810.75;5088597;27;66409;-33
2022/10/23 10:27:54;;;;;;;13.82;12.43;;;;;;;32.06;69.87;100827.25;5100707;27;68971;-34
2022/10/23 10:30:29;;;;;;;13.18;12.07;;;;;;;32.02;69.93;100826.88;5093244;27;66764;-33
2022/10/23 10:33:14;;;;;;;13.68;12.38;;;;;;;32.03;70.41;100831.25;5090582;27;70388;-33
2022/10/23 10:36:20;;;;;;;12.02;11.05;;;;;;;31.99;70.25;100816.50;5099318;27;65830;-32
2022/10/23 10:39:03;;;;;;;12.52;11.52;;;;;;;31.56;70.20;100746.91;5078011;27;69227;-35
2022/10/23 10:41:52;;;;;;;15.23;12.13;;;;;;;31.50;70.78;100774.94;5099131;27;66634;-33
2022/10/23 10:44:33;;;;;;;12.48;11.57;;;;;;;31.99;70.21;100850.94;5098686;27;70253;-33
2022/10/23 10:47:18;;;;;;;12.70;11.40;;;;;;;32.00;70.07;100829.00;5097603;27;65965;-32
2022/10/23 10:50:29;;;;;;;10.98;10.25;;;;;;;31.85;70.57;100844.81;5113263;27;70509;-34
2022/10/23 10:53:41;;;;;;;13.43;12.23;;;;;;;31.82;70.95;100856.13;5102676;27;66688;-32
2022/10/23 10:56:14;;;;;;;15.35;13.02;;;;;;;31.71;70.56;100819.75;5114114;27;68676;-33
2022/10/23 10:58:50;;;;;;;13.02;11.82;;;;;;;31.42;70.60;100788.78;5096359;27;65691;-32
2022/10/23 11:01:51;;;;;;;12.27;11.35;;;;;;;31.82;71.22;100899.53;5105547;27;70401;-33
2022/10/23 11:04:52;;;;;;;12.85;11.50;;;;;;;31.81;71.02;100903.28;5101335;27;66581;-33
2022/10/23 11:07:30;;;;;;;13.63;12.30;;;;;;;31.38;70.67;100817.41;5086692;27;70451;-32
2022/10/23 11:10:13;;;;;;;14.30;11.40;;;;;;;31.90;70.78;100912.78;5095943;27;65405;-35
2022/10/23 11:12:46;;;;;;;12.77;11.55;;;;;;;31.90;70.61;100915.50;5098272;27;70343;-33
2022/10/23 11:15:28;;;;;;;11.90;10.60;;;;;;;31.85;71.43;100923.50;5093767;27;65630;-33
2022/10/23 11:18:02;;;;;;;13.52;11.88;;;;;;;31.45;70.77;100866.94;5107215;27;70017;-34
2022/10/23 11:20:56;;;;;;;12.75;11.40;;;;;;;31.86;71.05;100944.13;5103617;27;66790;-32
2022/10/23 11:23:51;;;;;;;12.68;11.52;;;;;;;31.85;71.04;100947.06;5093238;27;70272;-31
2022/10/23 11:26:50;;;;;;;13.40;12.13;;;;;;;31.70;71.53;100933.84;5093344;27;65626;-33
2022/10/23 11:29:48;;;;;;;16.00;13.63;;;;;;;31.80;71.47;100945.03;5076461;27;69093;-33
2022/10/23 11:32:47;;;;;;;12.13;11.23;;;;;;;31.51;73.53;100957.41;5089854;27;65340;-34
2022/10/23 11:35:42;;;;;;;14.65;12.38;;;;;;;31.46;74.50;100966.22;5092961;27;69073;-33
2022/10/23 11:38:41;;;;;;;14.75;13.35;;;;;;;31.28;76.01;100958.81;5100673;27;66660;-34
2022/10/23 11:41:22;;;;;;;15.05;13.52;;;;;;;31.32;75.94;100949.22;5089203;27;69684;-32
2022/10/23 11:44:06;;;;;;;18.42;14.10;;;;;;;30.85;76.31;100872.06;5090170;27;65572;-33
2022/10/23 11:46:37;;;;;;;18.70;12.98;;;;;;;30.82;76.89;100867.09;5090807;27;69724;-33
2022/10/23 11:49:20;;;;;;;19.73;14.48;;;;;;;31.19;76.93;100945.78;5099870;27;65615;-33
2022/10/23 11:52:03;;;;;;;14.88;13.35;;;;;;;31.19;77.28;100943.06;5087713;27;69233;-34
2022/10/23 11:54:34;;;;;;;19.42;14.02;;;;;;;31.20;77.29;100937.41;5096440;27;66797;-33
2022/10/23 11:57:07;;;;;;;20.60;14.82;;;;;;;31.21;77.78;100949.94;5091643;27;69818;-33
2022/10/23 11:59:41;;;;;;;16.60;14.30;;;;;;;31.23;77.51;100960.53;5091437;27;66031;-32
2022/10/23 12:02:32;;;;;;;23.08;14.02;;;;;;;31.14;78.17;100974.34;5075413;27;69160;-32
2022/10/23 12:05:08;;;;;;;18.80;13.52;;;;;;;31.19;77.84;100992.69;5089391;27;66918;-32
2022/10/23 12:07:41;;;;;;;13.43;12.13;;;;;;;30.66;77.57;100906.34;5089938;27;70042;-33
2022/10/23 12:10:18;;;;;;;14.63;11.60;;;;;;;31.16;77.27;100988.53;5084782;27;66711;-33
2022/10/23 12:12:57;;;;;;;13.30;11.88;;;;;;;31.11;77.62;100980.22;5097213;27;70625;-33
2022/10/23 12:15:28;;;;;;;14.18;11.45;;;;;;;31.09;77.46;100970.66;5087495;27;66548;-34
2022/10/23 12:18:14;;;;;;;13.55;12.30;;;;;;;30.56;77.64;100906.78;5082899;27;71643;-34